Station: Mackay  

  Atmospheric Gas Attenuation - ITU Rec 676-11   ----------------- dB/100km -----------------
Date Time Temp RH % AH g/m3 Dew Point Wind Direction Speed kph Gust kph Barometer mB Rainfall Since 9am 24GHz 47GHz 76GHz 122GHz 134GHz 241GHz
04/09 16:10 23.5 70 14.8 17.7 13 19 1019.4 0.2 32.2 33.3 59.9 158.0 167.4 580.6
04/09 16:00 24.4 69 15.36 18.3 11 17 1019.3 0.2 33.3 33.9 61.6 162.6 173.3 601.3
04/09 15:50 24.2 69 15.18 18.2 11 17 1019.2 0.2 32.9 33.7 61.0 160.9 171.2 593.9
04/09 15:40 24.1 69 15.1 18.1 11 20 1019.2 0.2 32.7 33.6 60.7 160.2 170.2 590.7
04/09 15:30 24.6 69 15.53 18.5 11 20 1019 0.2 33.6 34.1 62.1 164.1 175.2 608.0
04/09 15:20 24 69 15.01 18 13 17 1019.2 0.2 32.6 33.5 60.4 159.4 169.2 587.1
04/09 15:10 25.4 66 15.54 18.6 11 19 1019.2 0.2 33.6 33.8 61.6 162.6 173.5 602.3
04/09 15:00 25.4 66 15.54 18.6 11 17 1019.3 0.2 33.6 33.8 61.6 162.6 173.5 602.4
04/09 14:50 24.8 66 15.02 18 11 19 1019.4 0.2 32.5 33.2 59.8 157.9 167.6 581.6
04/09 14:40 25.7 63 15.08 18.1 11 24 1019.5 0.2 32.6 32.9 59.4 156.8 166.5 577.8
04/09 14:30 25.9 62 15.01 18.1 13 22 1019.6 0.2 32.4 32.8 58.9 155.6 165.1 573.0
04/09 14:20 26.2 62 15.26 18.3 13 20 1019.7 0.2 32.9 33.1 59.8 157.8 167.9 582.8
04/09 14:10 27 61 15.7 18.8 11 19 1019.8 0.2 33.8 33.5 61.0 161.1 172.2 598.0
04/09 14:00 26.7 61 15.44 18.6 9 19 1019.9 0.2 33.2 33.2 60.2 158.8 169.3 587.8
04/09 13:50 26.5 61 15.27 18.4 11 20 1020.1 0.2 32.9 33.0 59.6 157.4 167.4 581.2
04/09 13:40 26.6 62 15.61 18.7 11 19 1020.1 0.2 33.6 33.5 61.0 161.0 171.9 596.8
04/09 13:30 26.6 61 15.36 18.5 11 20 1020.2 0.2 33.1 33.1 59.9 158.2 168.5 584.8
04/09 13:20 26.8 61 15.53 18.6 11 20 1020.3 0.2 33.4 33.3 60.5 159.7 170.4 591.5
04/09 13:10 26.2 61 15.02 18.1 13 20 1020.4 0.2 32.4 32.7 58.8 155.2 164.7 571.6
04/09 13:00 26.4 61 15.19 18.3 11 19 1020.5 0.2 32.7 32.9 59.4 156.7 166.6 578.3
04/09 12:50 26.5 62 15.52 18.6 11 19 1020.6 0.2 33.4 33.4 60.7 160.2 170.9 593.5
04/09 12:40 26.3 60 14.85 17.9 11 17 1020.8 0.2 32.0 32.4 58.0 153.2 162.2 563.0
04/09 12:30 27 60 15.44 18.6 9 17 1020.9 0.2 33.2 33.1 60.0 158.4 168.8 586.0
04/09 12:20 25.8 66 15.89 19 13 19 1021 0.2 34.3 34.4 62.9 166.0 177.8 617.1
04/09 12:10 26.7 61 15.44 18.6 13 19 1021.2 0.2 33.2 33.2 60.2 159.0 169.5 588.4
04/09 12:00 25.1 64 14.82 17.8 13 19 1021.3 0.2 32.1 32.8 58.8 155.3 164.4 570.5
04/09 11:50 25.6 64 15.24 18.3 11 19 1021.5 0.2 32.9 33.3 60.3 159.0 169.2 587.1
04/09 11:40 26.7 60 15.19 18.3 11 19 1021.6 0.2 32.7 32.8 59.2 156.3 166.1 576.6
04/09 11:30 26.7 59 14.93 18 11 19 1021.8 0.2 32.2 32.4 58.1 153.4 162.6 564.3
04/09 11:20 26 60 14.61 17.6 11 19 1021.9 0.2 31.5 32.1 57.3 151.3 159.7 554.2
04/09 11:10 25.4 67 15.77 18.8 13 20 1022.1 0.2 34.0 34.4 62.7 165.6 177.1 614.9
04/09 11:00 24.8 68 15.48 18.5 11 17 1022.2 0.2 33.5 34.1 61.9 163.5 174.4 605.4
04/09 10:50 24.2 69 15.18 18.2 13 19 1022.4 0.2 32.9 33.8 61.1 161.4 171.6 595.3
04/09 10:40 24.4 67 14.91 17.9 13 19 1022.5 0.2 32.3 33.3 59.8 157.9 167.3 580.5
04/09 10:30 23.7 66 14.12 17 9 15 1022.7 0.2 30.7 32.2 57.0 150.3 157.8 547.3
04/09 10:20 25.2 68 15.83 18.9 9 15 1022.7 0.2 34.2 34.6 63.2 166.8 178.5 619.7
04/09 10:10 23.7 70 14.97 17.9 9 15 1022.8 0 32.5 33.7 60.6 160.0 169.7 588.9
04/09 10:00 24.5 70 15.67 18.7 9 13 1022.9 0 33.9 34.6 63.1 166.5 177.9 617.5
04/09 09:50 23.8 75 16.13 19.1 7 13 1022.9 0 34.9 35.7 65.7 173.4 186.2 646.4
04/09 09:40 22.9 76 15.53 18.4 4 9 1023.1 0 33.7 35.0 63.8 168.3 179.7 623.4
04/09 09:30 22.6 76 15.27 18.2 4 9 1023.1 0 33.2 34.6 62.9 165.9 176.6 612.6
04/09 09:20 22.7 78 15.76 18.7 4 9 1023.2 0 34.2 35.5 65.0 171.5 183.5 636.9
04/09 09:10 21.9 80 15.44 18.3 7 9 1023.2 0 33.6 35.2 64.2 169.5 180.7 627.0
04/09 09:00 21.2 82 15.2 18 7 11 1023.2 0 33.2 35.1 63.7 168.1 178.9 620.4
04/09 08:50 20.8 83 15.03 17.8 7 11 1023.1 0 32.8 34.9 63.3 166.9 177.3 614.8
04/09 08:40 20.6 88 15.75 18.5 7 9 1023.1 0 34.4 36.3 66.7 176.2 188.6 654.1
04/09 08:30 19.6 88 14.85 17.6 9 11 1023.1 0 32.6 35.1 63.4 167.4 177.4 615.1
04/09 08:20 18.9 89 14.42 17 9 11 1023 0 31.7 34.6 62.0 163.6 172.6 598.2
04/09 08:10 18.4 91 14.31 16.9 9 13 1022.9 0 31.5 34.6 61.9 163.3 172.1 596.3
04/09 08:00 17.9 92 14.05 16.6 9 13 1022.8 0 31.0 34.3 61.1 161.2 169.3 586.5
04/09 07:50 17.5 92 13.72 16.2 9 13 1022.8 0 30.3 33.9 59.9 158.0 165.2 572.3
04/09 07:40 17 94 13.6 16 9 13 1022.6 0 30.1 33.8 59.8 157.6 164.5 569.7
04/09 07:30 16.5 94 13.2 15.5 9 13 1022.6 0 29.3 33.3 58.3 153.7 159.6 552.5
04/09 07:20 16 94 12.81 15 11 15 1022.4 0 28.5 32.8 56.9 150.0 154.8 535.8
04/09 07:10 15.5 95 12.56 14.7 11 15 1022.3 0 28.0 32.5 56.1 147.9 152.1 526.2
04/09 07:00 15.2 95 12.33 14.4 11 15 1022.2 0 27.5 32.2 55.3 145.7 149.3 516.4
04/09 06:50 15.1 95 12.26 14.3 11 15 1022.1 0 27.3 32.1 55.1 145.0 148.4 513.4
04/09 06:40 14.8 95 12.03 14 13 17 1022 0 26.9 31.8 54.2 142.8 145.6 503.5
04/09 06:30 14.7 95 11.96 13.9 13 17 1021.8 0 26.7 31.7 54.0 142.1 144.7 500.5
04/09 06:20 14.6 95 11.89 13.8 11 15 1021.7 0 26.6 31.6 53.7 141.5 143.9 497.5
04/09 06:10 14.5 95 11.82 13.7 13 15 1021.6 0 26.4 31.5 53.5 140.8 143.0 494.5
04/09 06:00 14.6 95 11.89 13.8 13 15 1021.5 0 26.6 31.6 53.7 141.4 143.9 497.4
04/09 05:50 14.6 96 12.01 14 13 15 1021.5 0 26.8 31.8 54.3 142.9 145.6 503.6
04/09 05:40 14.4 96 11.87 13.8 13 15 1021.3 0 26.6 31.6 53.8 141.6 143.9 497.6
04/09 05:30 14.4 97 11.99 13.9 11 15 1021.3 0 26.8 31.8 54.3 143.0 145.7 503.8
04/09 05:20 14.3 97 11.92 13.8 11 13 1021.1 0 26.7 31.7 54.0 142.3 144.8 500.8
04/09 05:10 14.3 97 11.92 13.8 11 15 1021 0 26.7 31.7 54.0 142.3 144.8 500.7
04/09 05:00 14.3 97 11.92 13.8 13 15 1021 0 26.7 31.7 54.0 142.3 144.8 500.7
04/09 04:50 14.4 98 12.11 14.1 11 15 1020.9 0 27.1 32.0 54.8 144.4 147.4 509.9
04/09 04:40 14.5 98 12.19 14.2 11 15 1020.7 0 27.2 32.1 55.1 145.1 148.4 513.3
04/09 04:30 14.6 98 12.26 14.3 11 13 1020.6 0 27.4 32.2 55.3 145.8 149.2 516.2
04/09 04:20 14.8 98 12.41 14.5 9 13 1020.6 0 27.7 32.4 55.9 147.2 151.1 522.6
04/09 04:10 15 98 12.57 14.7 11 13 1020.5 0 28.0 32.6 56.4 148.8 153.1 529.5
04/09 04:00 15.2 98 12.72 14.9 11 15 1020.6 0 28.3 32.8 57.0 150.2 154.9 536.0
04/09 03:50 15.4 98 12.88 15.1 11 13 1020.6 0 28.7 33.0 57.6 151.8 156.9 542.9
04/09 03:40 15.3 98 12.8 15 9 13 1020.6 0 28.5 32.9 57.3 151.0 155.9 539.5
04/09 03:30 15.3 98 12.8 15 9 13 1020.7 0 28.5 32.9 57.3 151.0 155.9 539.5
04/09 03:20 15.3 98 12.8 15 9 11 1020.8 0 28.5 32.9 57.3 151.0 155.9 539.5
04/09 03:10 15.4 98 12.88 15.1 9 11 1020.8 0 28.7 33.1 57.6 151.8 156.9 543.0
04/09 03:00 15.5 97 12.82 15 4 9 1020.9 0 28.5 32.9 57.2 150.9 155.8 539.2
04/09 02:50 16.4 98 13.68 16.1 6 7 1020.9 0 30.3 34.1 60.5 159.6 166.8 577.7
04/09 02:40 15.9 98 13.27 15.6 7 9 1020.9 0 29.5 33.6 59.0 155.6 161.7 559.9
04/09 02:30 15.6 97 12.9 15.1 7 9 1021 0 28.7 33.0 57.5 151.7 156.8 542.7
04/09 02:20 15.7 97 12.98 15.2 7 7 1021.1 0 28.9 33.1 57.8 152.4 157.8 546.2
04/09 02:10 16 97 13.22 15.5 7 9 1021.1 0 29.3 33.5 58.7 154.8 160.8 556.6
04/09 02:00 16.1 97 13.3 15.6 9 11 1021.1 0 29.5 33.6 59.0 155.5 161.8 560.1
04/09 01:50 16.2 97 13.38 15.7 9 13 1021.2 0 29.7 33.7 59.3 156.3 162.8 563.6
04/09 01:40 16.4 97 13.54 15.9 4 9 1021.3 0 30.0 33.9 59.9 157.9 164.8 570.5
04/09 01:30 16.6 97 13.7 16.1 7 11 1021.3 0 30.3 34.1 60.5 159.4 166.7 577.4
04/09 01:20 16.4 97 13.54 15.9 7 11 1021.4 0 30.0 33.9 59.9 157.9 164.8 570.6
04/09 01:10 16.5 97 13.62 16 9 11 1021.5 0 30.2 34.0 60.2 158.7 165.8 574.1
04/09 01:00 16.7 97 13.78 16.2 7 9 1021.6 0 30.5 34.2 60.8 160.3 167.8 581.0
04/09 00:50 16.8 96 13.72 16.2 7 9 1021.7 0 30.4 34.1 60.4 159.3 166.6 577.1
04/09 00:40 17 96 13.89 16.4 7 9 1021.8 0 30.7 34.3 61.0 161.0 168.8 584.6
04/09 00:30 17.4 95 14.08 16.6 2 9 1021.8 0 31.1 34.5 61.6 162.5 170.7 591.5
04/09 00:20 17.5 96 14.31 16.9 6 7 1021.8 0 31.6 34.9 62.6 165.1 174.0 602.9
04/09 00:10 17.6 96 14.4 17 0 6 1021.8 0 31.8 35.0 62.9 166.0 175.1 606.9
04/09 00:00 17.4 95 14.08 16.6 0 4 1021.9 0 31.1 34.5 61.6 162.5 170.8 591.6
03/09 23:50 17.6 95 14.25 16.8 0 0 1021.9 0 31.4 34.8 62.2 164.2 172.9 599.0
03/09 23:40 17.5 96 14.31 16.9 4 9 1022 0 31.6 34.9 62.6 165.2 174.0 603.0

Last Refresh: 04-Sep-2026 15:55:54

Bureau of Meteorology